sensor_id;sensor_type;location;lat;lon;timestamp;temperature;humidity
10530;DHT22;5313;48.834;9.228;2023-07-31T00:00:34;17.00;99.90
10530;DHT22;5313;48.834;9.228;2023-07-31T00:02:59;16.90;99.90
10530;DHT22;5313;48.834;9.228;2023-07-31T00:05:25;16.90;99.90
10530;DHT22;5313;48.834;9.228;2023-07-31T00:07:50;16.80;99.90
10530;DHT22;5313;48.834;9.228;2023-07-31T00:10:16;16.70;99.90
10530;DHT22;5313;48.834;9.228;2023-07-31T00:12:43;16.70;99.90
10530;DHT22;5313;48.834;9.228;2023-07-31T00:15:09;16.70;99.90
10530;DHT22;5313;48.834;9.228;2023-07-31T00:17:35;16.70;99.90
10530;DHT22;5313;48.834;9.228;2023-07-31T00:20:01;16.70;99.90
10530;DHT22;5313;48.834;9.228;2023-07-31T00:22:26;16.70;99.90
10530;DHT22;5313;48.834;9.228;2023-07-31T00:24:52;16.70;99.90
10530;DHT22;5313;48.834;9.228;2023-07-31T00:27:17;16.70;99.90
10530;DHT22;5313;48.834;9.228;2023-07-31T00:29:43;16.60;99.90
10530;DHT22;5313;48.834;9.228;2023-07-31T00:32:08;16.60;99.90
10530;DHT22;5313;48.834;9.228;2023-07-31T00:34:34;16.60;99.90
10530;DHT22;5313;48.834;9.228;2023-07-31T00:36:59;16.60;99.90
10530;DHT22;5313;48.834;9.228;2023-07-31T00:39:25;16.60;99.90
10530;DHT22;5313;48.834;9.228;2023-07-31T00:41:50;16.60;99.90
10530;DHT22;5313;48.834;9.228;2023-07-31T00:44:16;16.60;99.90
10530;DHT22;5313;48.834;9.228;2023-07-31T00:46:41;16.60;99.90
10530;DHT22;5313;48.834;9.228;2023-07-31T00:49:07;16.50;99.90
10530;DHT22;5313;48.834;9.228;2023-07-31T00:51:33;16.50;99.90
10530;DHT22;5313;48.834;9.228;2023-07-31T00:53:59;16.50;99.90
10530;DHT22;5313;48.834;9.228;2023-07-31T00:56:25;16.50;99.90
10530;DHT22;5313;48.834;9.228;2023-07-31T00:58:51;16.50;99.90
10530;DHT22;5313;48.834;9.228;2023-07-31T01:01:17;16.50;99.90
10530;DHT22;5313;48.834;9.228;2023-07-31T01:03:42;16.50;99.90
10530;DHT22;5313;48.834;9.228;2023-07-31T01:06:44;16.50;99.90
10530;DHT22;5313;48.834;9.228;2023-07-31T01:09:29;16.40;99.90
10530;DHT22;5313;48.834;9.228;2023-07-31T01:12:02;16.40;99.90
10530;DHT22;5313;48.834;9.228;2023-07-31T01:14:28;16.30;99.90
10530;DHT22;5313;48.834;9.228;2023-07-31T01:16:54;16.40;99.90
10530;DHT22;5313;48.834;9.228;2023-07-31T01:19:22;16.30;99.90
10530;DHT22;5313;48.834;9.228;2023-07-31T01:25:09;16.30;99.90
10530;DHT22;5313;48.834;9.228;2023-07-31T01:27:50;16.40;99.90
10530;DHT22;5313;48.834;9.228;2023-07-31T01:30:21;16.30;99.90
10530;DHT22;5313;48.834;9.228;2023-07-31T01:32:48;16.30;99.90
10530;DHT22;5313;48.834;9.228;2023-07-31T01:35:15;16.30;99.90
10530;DHT22;5313;48.834;9.228;2023-07-31T01:37:40;16.30;99.90
10530;DHT22;5313;48.834;9.228;2023-07-31T01:40:07;16.30;99.90
10530;DHT22;5313;48.834;9.228;2023-07-31T01:42:32;16.30;99.90
10530;DHT22;5313;48.834;9.228;2023-07-31T01:44:58;16.40;99.90
10530;DHT22;5313;48.834;9.228;2023-07-31T01:47:23;16.30;99.90
10530;DHT22;5313;48.834;9.228;2023-07-31T01:49:49;16.30;99.90
10530;DHT22;5313;48.834;9.228;2023-07-31T01:52:14;16.30;99.90
10530;DHT22;5313;48.834;9.228;2023-07-31T01:54:40;16.30;99.90
10530;DHT22;5313;48.834;9.228;2023-07-31T01:57:06;16.20;99.90
10530;DHT22;5313;48.834;9.228;2023-07-31T01:59:31;16.20;99.90
10530;DHT22;5313;48.834;9.228;2023-07-31T02:01:57;16.20;99.90
10530;DHT22;5313;48.834;9.228;2023-07-31T02:04:22;16.10;99.90
10530;DHT22;5313;48.834;9.228;2023-07-31T02:06:48;16.00;99.90
10530;DHT22;5313;48.834;9.228;2023-07-31T02:09:13;16.00;99.90
10530;DHT22;5313;48.834;9.228;2023-07-31T02:11:39;16.00;99.90
10530;DHT22;5313;48.834;9.228;2023-07-31T02:14:04;16.00;99.90
10530;DHT22;5313;48.834;9.228;2023-07-31T02:16:30;16.00;99.90
10530;DHT22;5313;48.834;9.228;2023-07-31T02:18:55;16.00;99.90
10530;DHT22;5313;48.834;9.228;2023-07-31T02:21:21;16.00;99.90
10530;DHT22;5313;48.834;9.228;2023-07-31T02:23:46;16.00;99.90
10530;DHT22;5313;48.834;9.228;2023-07-31T02:26:12;16.00;99.90
10530;DHT22;5313;48.834;9.228;2023-07-31T02:28:37;16.00;99.90
10530;DHT22;5313;48.834;9.228;2023-07-31T02:31:03;16.00;99.90
10530;DHT22;5313;48.834;9.228;2023-07-31T02:33:28;16.00;99.90
10530;DHT22;5313;48.834;9.228;2023-07-31T02:35:54;16.00;99.90
10530;DHT22;5313;48.834;9.228;2023-07-31T02:38:19;16.00;99.90
10530;DHT22;5313;48.834;9.228;2023-07-31T02:40:45;16.00;99.90
10530;DHT22;5313;48.834;9.228;2023-07-31T02:43:10;16.50;99.90
10530;DHT22;5313;48.834;9.228;2023-07-31T02:45:36;17.20;99.90
10530;DHT22;5313;48.834;9.228;2023-07-31T02:48:01;16.90;99.90
10530;DHT22;5313;48.834;9.228;2023-07-31T02:50:27;16.60;99.90
10530;DHT22;5313;48.834;9.228;2023-07-31T02:52:55;16.70;99.90
10530;DHT22;5313;48.834;9.228;2023-07-31T02:55:21;16.60;99.90
10530;DHT22;5313;48.834;9.228;2023-07-31T02:57:46;16.70;99.90
10530;DHT22;5313;48.834;9.228;2023-07-31T03:00:12;16.50;99.90
10530;DHT22;5313;48.834;9.228;2023-07-31T03:02:38;16.40;99.90
10530;DHT22;5313;48.834;9.228;2023-07-31T03:05:04;16.20;99.90
10530;DHT22;5313;48.834;9.228;2023-07-31T03:07:29;16.40;99.90
10530;DHT22;5313;48.834;9.228;2023-07-31T03:09:56;16.40;99.90
10530;DHT22;5313;48.834;9.228;2023-07-31T03:12:21;16.30;99.90
10530;DHT22;5313;48.834;9.228;2023-07-31T03:14:47;16.20;99.90
10530;DHT22;5313;48.834;9.228;2023-07-31T03:17:12;16.10;99.90
10530;DHT22;5313;48.834;9.228;2023-07-31T03:19:38;16.00;99.90
10530;DHT22;5313;48.834;9.228;2023-07-31T03:22:04;16.10;99.90
10530;DHT22;5313;48.834;9.228;2023-07-31T03:24:29;16.30;99.90
10530;DHT22;5313;48.834;9.228;2023-07-31T03:26:55;16.20;99.90
10530;DHT22;5313;48.834;9.228;2023-07-31T03:29:20;16.20;99.90
10530;DHT22;5313;48.834;9.228;2023-07-31T03:31:46;16.20;99.90
10530;DHT22;5313;48.834;9.228;2023-07-31T03:34:11;16.90;99.90
10530;DHT22;5313;48.834;9.228;2023-07-31T03:36:37;16.70;99.90
10530;DHT22;5313;48.834;9.228;2023-07-31T03:39:03;16.40;99.90
10530;DHT22;5313;48.834;9.228;2023-07-31T03:41:28;16.30;99.90
10530;DHT22;5313;48.834;9.228;2023-07-31T03:43:54;16.10;99.90
10530;DHT22;5313;48.834;9.228;2023-07-31T03:46:23;16.20;99.90
10530;DHT22;5313;48.834;9.228;2023-07-31T03:48:49;16.30;99.90
10530;DHT22;5313;48.834;9.228;2023-07-31T03:51:15;16.50;99.90
10530;DHT22;5313;48.834;9.228;2023-07-31T03:53:42;16.30;99.90
10530;DHT22;5313;48.834;9.228;2023-07-31T03:56:07;16.30;99.90
10530;DHT22;5313;48.834;9.228;2023-07-31T03:58:33;16.70;99.90
10530;DHT22;5313;48.834;9.228;2023-07-31T04:00:58;16.40;99.90
10530;DHT22;5313;48.834;9.228;2023-07-31T04:03:24;16.50;99.90
10530;DHT22;5313;48.834;9.228;2023-07-31T04:05:49;16.40;99.90
10530;DHT22;5313;48.834;9.228;2023-07-31T04:08:15;16.20;99.90
10530;DHT22;5313;48.834;9.228;2023-07-31T04:10:40;16.20;99.90
10530;DHT22;5313;48.834;9.228;2023-07-31T04:13:06;16.10;99.90
10530;DHT22;5313;48.834;9.228;2023-07-31T04:15:31;16.20;99.90
10530;DHT22;5313;48.834;9.228;2023-07-31T04:17:57;16.10;99.90
10530;DHT22;5313;48.834;9.228;2023-07-31T04:20:22;16.10;99.90
10530;DHT22;5313;48.834;9.228;2023-07-31T04:22:49;16.20;99.90
10530;DHT22;5313;48.834;9.228;2023-07-31T04:25:14;16.20;99.90
10530;DHT22;5313;48.834;9.228;2023-07-31T04:27:40;16.20;99.90
10530;DHT22;5313;48.834;9.228;2023-07-31T04:30:06;16.20;99.90
10530;DHT22;5313;48.834;9.228;2023-07-31T04:32:32;16.20;99.90
10530;DHT22;5313;48.834;9.228;2023-07-31T04:34:57;16.30;99.90
10530;DHT22;5313;48.834;9.228;2023-07-31T04:37:23;16.30;99.90
10530;DHT22;5313;48.834;9.228;2023-07-31T04:39:48;16.40;99.90
10530;DHT22;5313;48.834;9.228;2023-07-31T04:42:14;16.40;99.90
10530;DHT22;5313;48.834;9.228;2023-07-31T04:44:39;16.40;99.90
10530;DHT22;5313;48.834;9.228;2023-07-31T04:47:05;16.40;99.90
10530;DHT22;5313;48.834;9.228;2023-07-31T04:49:32;16.50;99.90
10530;DHT22;5313;48.834;9.228;2023-07-31T04:51:57;16.50;99.90
10530;DHT22;5313;48.834;9.228;2023-07-31T04:54:23;16.50;99.90
10530;DHT22;5313;48.834;9.228;2023-07-31T04:56:48;16.60;99.90
10530;DHT22;5313;48.834;9.228;2023-07-31T04:59:14;16.70;99.90
10530;DHT22;5313;48.834;9.228;2023-07-31T05:01:39;16.70;99.90
10530;DHT22;5313;48.834;9.228;2023-07-31T05:04:05;16.80;99.90
10530;DHT22;5313;48.834;9.228;2023-07-31T05:06:30;16.80;99.90
10530;DHT22;5313;48.834;9.228;2023-07-31T05:08:56;16.80;99.90
10530;DHT22;5313;48.834;9.228;2023-07-31T05:11:21;16.80;99.90
10530;DHT22;5313;48.834;9.228;2023-07-31T05:13:47;16.80;99.90
10530;DHT22;5313;48.834;9.228;2023-07-31T05:16:12;16.80;99.90
10530;DHT22;5313;48.834;9.228;2023-07-31T05:18:38;16.80;99.90
10530;DHT22;5313;48.834;9.228;2023-07-31T05:21:03;16.80;99.90
10530;DHT22;5313;48.834;9.228;2023-07-31T05:23:29;16.80;99.90
10530;DHT22;5313;48.834;9.228;2023-07-31T05:26:03;16.90;99.90
10530;DHT22;5313;48.834;9.228;2023-07-31T05:28:29;16.90;99.90
10530;DHT22;5313;48.834;9.228;2023-07-31T05:31:02;16.90;99.90
10530;DHT22;5313;48.834;9.228;2023-07-31T05:33:28;17.00;99.90
10530;DHT22;5313;48.834;9.228;2023-07-31T05:35:53;17.00;99.90
10530;DHT22;5313;48.834;9.228;2023-07-31T05:38:19;17.10;99.90
10530;DHT22;5313;48.834;9.228;2023-07-31T05:40:44;17.20;99.90
10530;DHT22;5313;48.834;9.228;2023-07-31T05:43:10;17.20;99.90
10530;DHT22;5313;48.834;9.228;2023-07-31T05:45:36;17.30;99.90
10530;DHT22;5313;48.834;9.228;2023-07-31T05:48:02;17.30;99.90
10530;DHT22;5313;48.834;9.228;2023-07-31T05:50:28;17.40;99.90
10530;DHT22;5313;48.834;9.228;2023-07-31T05:52:53;17.50;99.90
10530;DHT22;5313;48.834;9.228;2023-07-31T05:55:19;17.60;99.90
10530;DHT22;5313;48.834;9.228;2023-07-31T05:57:44;17.60;99.90
10530;DHT22;5313;48.834;9.228;2023-07-31T06:00:12;17.70;99.90
10530;DHT22;5313;48.834;9.228;2023-07-31T06:02:37;17.70;99.90
10530;DHT22;5313;48.834;9.228;2023-07-31T06:05:04;17.80;99.90
10530;DHT22;5313;48.834;9.228;2023-07-31T06:07:31;17.80;99.90
10530;DHT22;5313;48.834;9.228;2023-07-31T06:09:57;17.90;99.90
10530;DHT22;5313;48.834;9.228;2023-07-31T06:12:27;17.80;99.90
10530;DHT22;5313;48.834;9.228;2023-07-31T06:14:52;17.90;99.90
10530;DHT22;5313;48.834;9.228;2023-07-31T06:17:18;17.90;99.90
10530;DHT22;5313;48.834;9.228;2023-07-31T06:19:43;18.00;99.90
10530;DHT22;5313;48.834;9.228;2023-07-31T06:22:09;18.10;99.90
10530;DHT22;5313;48.834;9.228;2023-07-31T06:24:34;18.30;99.90
10530;DHT22;5313;48.834;9.228;2023-07-31T06:27:00;18.30;99.90
10530;DHT22;5313;48.834;9.228;2023-07-31T06:29:28;18.40;99.90
10530;DHT22;5313;48.834;9.228;2023-07-31T06:31:53;18.50;99.90
10530;DHT22;5313;48.834;9.228;2023-07-31T06:34:19;18.70;99.90
10530;DHT22;5313;48.834;9.228;2023-07-31T06:36:44;18.90;99.90
10530;DHT22;5313;48.834;9.228;2023-07-31T06:39:10;19.10;99.90
10530;DHT22;5313;48.834;9.228;2023-07-31T06:41:35;19.20;99.90
10530;DHT22;5313;48.834;9.228;2023-07-31T06:44:01;19.30;99.90
10530;DHT22;5313;48.834;9.228;2023-07-31T06:46:26;19.30;99.90
10530;DHT22;5313;48.834;9.228;2023-07-31T06:48:52;19.20;99.90
10530;DHT22;5313;48.834;9.228;2023-07-31T06:51:17;19.20;99.90
10530;DHT22;5313;48.834;9.228;2023-07-31T06:53:43;19.30;99.90
10530;DHT22;5313;48.834;9.228;2023-07-31T06:56:10;19.50;99.90
10530;DHT22;5313;48.834;9.228;2023-07-31T06:58:36;19.70;99.90
10530;DHT22;5313;48.834;9.228;2023-07-31T07:01:01;19.90;99.90
10530;DHT22;5313;48.834;9.228;2023-07-31T07:03:27;20.00;99.90
10530;DHT22;5313;48.834;9.228;2023-07-31T07:05:53;20.10;99.90
10530;DHT22;5313;48.834;9.228;2023-07-31T07:08:18;20.10;99.90
10530;DHT22;5313;48.834;9.228;2023-07-31T07:10:44;20.20;99.90
10530;DHT22;5313;48.834;9.228;2023-07-31T07:13:09;20.20;99.90
10530;DHT22;5313;48.834;9.228;2023-07-31T07:15:35;20.30;99.90
10530;DHT22;5313;48.834;9.228;2023-07-31T07:18:00;20.50;99.90
10530;DHT22;5313;48.834;9.228;2023-07-31T07:20:26;20.50;99.90
10530;DHT22;5313;48.834;9.228;2023-07-31T07:22:51;20.60;99.90
10530;DHT22;5313;48.834;9.228;2023-07-31T07:25:17;20.80;99.90
10530;DHT22;5313;48.834;9.228;2023-07-31T07:27:42;20.90;99.90
10530;DHT22;5313;48.834;9.228;2023-07-31T07:30:08;20.70;99.90
10530;DHT22;5313;48.834;9.228;2023-07-31T07:32:34;20.60;99.90
10530;DHT22;5313;48.834;9.228;2023-07-31T07:35:00;20.60;99.90
10530;DHT22;5313;48.834;9.228;2023-07-31T07:37:25;20.50;99.90
10530;DHT22;5313;48.834;9.228;2023-07-31T07:39:51;20.50;99.90
10530;DHT22;5313;48.834;9.228;2023-07-31T07:42:16;20.40;99.90
10530;DHT22;5313;48.834;9.228;2023-07-31T07:44:42;20.50;99.90
10530;DHT22;5313;48.834;9.228;2023-07-31T07:47:07;20.60;99.90
10530;DHT22;5313;48.834;9.228;2023-07-31T07:49:36;20.80;99.90
10530;DHT22;5313;48.834;9.228;2023-07-31T07:52:02;21.10;99.90
10530;DHT22;5313;48.834;9.228;2023-07-31T07:54:28;21.20;99.90
10530;DHT22;5313;48.834;9.228;2023-07-31T07:56:54;21.10;99.90
10530;DHT22;5313;48.834;9.228;2023-07-31T07:59:20;21.20;99.90
10530;DHT22;5313;48.834;9.228;2023-07-31T08:01:45;21.30;99.90
10530;DHT22;5313;48.834;9.228;2023-07-31T08:04:11;21.30;99.90
10530;DHT22;5313;48.834;9.228;2023-07-31T08:06:36;21.20;99.90
10530;DHT22;5313;48.834;9.228;2023-07-31T08:09:02;21.50;99.90
10530;DHT22;5313;48.834;9.228;2023-07-31T08:11:34;21.60;99.90
10530;DHT22;5313;48.834;9.228;2023-07-31T08:14:00;21.50;99.90
10530;DHT22;5313;48.834;9.228;2023-07-31T08:16:25;21.40;99.90
10530;DHT22;5313;48.834;9.228;2023-07-31T08:18:51;21.30;99.90
10530;DHT22;5313;48.834;9.228;2023-07-31T08:21:16;21.20;99.90
10530;DHT22;5313;48.834;9.228;2023-07-31T08:23:42;21.30;99.90
10530;DHT22;5313;48.834;9.228;2023-07-31T08:26:07;21.40;99.90
10530;DHT22;5313;48.834;9.228;2023-07-31T08:28:33;21.60;99.90
10530;DHT22;5313;48.834;9.228;2023-07-31T08:30:58;21.70;99.90
10530;DHT22;5313;48.834;9.228;2023-07-31T08:33:24;21.80;99.90
10530;DHT22;5313;48.834;9.228;2023-07-31T08:35:49;21.40;99.90
10530;DHT22;5313;48.834;9.228;2023-07-31T08:38:15;21.60;99.90
10530;DHT22;5313;48.834;9.228;2023-07-31T08:40:40;21.70;99.90
10530;DHT22;5313;48.834;9.228;2023-07-31T08:43:08;21.80;99.90
10530;DHT22;5313;48.834;9.228;2023-07-31T08:45:34;21.70;99.90
10530;DHT22;5313;48.834;9.228;2023-07-31T08:48:00;21.70;99.90
10530;DHT22;5313;48.834;9.228;2023-07-31T08:50:26;21.80;99.90
10530;DHT22;5313;48.834;9.228;2023-07-31T08:52:52;21.70;99.90
10530;DHT22;5313;48.834;9.228;2023-07-31T08:55:18;21.90;99.90
10530;DHT22;5313;48.834;9.228;2023-07-31T08:57:50;22.00;99.90
10530;DHT22;5313;48.834;9.228;2023-07-31T09:00:16;22.00;99.90
10530;DHT22;5313;48.834;9.228;2023-07-31T09:02:48;21.90;99.90
10530;DHT22;5313;48.834;9.228;2023-07-31T09:05:16;22.00;99.90
10530;DHT22;5313;48.834;9.228;2023-07-31T09:07:44;22.10;99.90
10530;DHT22;5313;48.834;9.228;2023-07-31T09:10:11;22.00;99.90
10530;DHT22;5313;48.834;9.228;2023-07-31T09:12:38;21.90;99.90
10530;DHT22;5313;48.834;9.228;2023-07-31T09:15:04;21.90;99.90
10530;DHT22;5313;48.834;9.228;2023-07-31T09:17:35;21.80;99.90
10530;DHT22;5313;48.834;9.228;2023-07-31T09:20:21;21.90;99.90
10530;DHT22;5313;48.834;9.228;2023-07-31T09:22:48;21.90;99.90
10530;DHT22;5313;48.834;9.228;2023-07-31T09:27:57;21.80;99.90
10530;DHT22;5313;48.834;9.228;2023-07-31T09:30:23;22.00;99.90
10530;DHT22;5313;48.834;9.228;2023-07-31T09:32:50;22.00;99.90
10530;DHT22;5313;48.834;9.228;2023-07-31T09:35:19;22.10;99.90
10530;DHT22;5313;48.834;9.228;2023-07-31T09:37:52;22.00;99.90
10530;DHT22;5313;48.834;9.228;2023-07-31T09:40:28;22.00;99.90
10530;DHT22;5313;48.834;9.228;2023-07-31T09:42:57;22.00;99.90
10530;DHT22;5313;48.834;9.228;2023-07-31T09:45:23;22.00;99.90
10530;DHT22;5313;48.834;9.228;2023-07-31T09:47:49;21.90;99.90
10530;DHT22;5313;48.834;9.228;2023-07-31T09:50:15;21.80;99.90
10530;DHT22;5313;48.834;9.228;2023-07-31T09:52:43;21.80;99.90
10530;DHT22;5313;48.834;9.228;2023-07-31T09:55:09;21.60;99.90
10530;DHT22;5313;48.834;9.228;2023-07-31T09:57:44;21.50;99.90
10530;DHT22;5313;48.834;9.228;2023-07-31T10:00:11;21.70;99.90
10530;DHT22;5313;48.834;9.228;2023-07-31T10:02:38;21.70;99.90
10530;DHT22;5313;48.834;9.228;2023-07-31T10:05:05;21.80;99.90
10530;DHT22;5313;48.834;9.228;2023-07-31T10:07:36;22.00;99.90
10530;DHT22;5313;48.834;9.228;2023-07-31T10:10:04;22.00;99.90
10530;DHT22;5313;48.834;9.228;2023-07-31T10:12:32;21.80;99.90
10530;DHT22;5313;48.834;9.228;2023-07-31T10:14:59;21.90;99.90
10530;DHT22;5313;48.834;9.228;2023-07-31T10:17:26;22.10;99.90
10530;DHT22;5313;48.834;9.228;2023-07-31T10:19:53;22.30;99.90
10530;DHT22;5313;48.834;9.228;2023-07-31T10:22:19;22.40;99.90
10530;DHT22;5313;48.834;9.228;2023-07-31T10:24:46;22.70;99.90
10530;DHT22;5313;48.834;9.228;2023-07-31T10:27:12;22.90;99.90
10530;DHT22;5313;48.834;9.228;2023-07-31T10:29:43;22.80;99.90
10530;DHT22;5313;48.834;9.228;2023-07-31T10:32:10;22.80;99.90
10530;DHT22;5313;48.834;9.228;2023-07-31T10:34:39;22.60;99.90
10530;DHT22;5313;48.834;9.228;2023-07-31T10:37:31;22.30;99.90
10530;DHT22;5313;48.834;9.228;2023-07-31T10:40:04;22.30;99.90
10530;DHT22;5313;48.834;9.228;2023-07-31T10:42:51;22.40;99.90
10530;DHT22;5313;48.834;9.228;2023-07-31T10:45:44;22.40;99.90
10530;DHT22;5313;48.834;9.228;2023-07-31T10:48:14;22.50;99.90
10530;DHT22;5313;48.834;9.228;2023-07-31T10:50:56;22.60;99.90
10530;DHT22;5313;48.834;9.228;2023-07-31T10:53:31;22.80;99.90
10530;DHT22;5313;48.834;9.228;2023-07-31T10:56:01;22.80;99.90
10530;DHT22;5313;48.834;9.228;2023-07-31T10:58:27;22.90;99.90
10530;DHT22;5313;48.834;9.228;2023-07-31T11:00:57;23.10;99.90
10530;DHT22;5313;48.834;9.228;2023-07-31T11:03:40;23.10;99.90
10530;DHT22;5313;48.834;9.228;2023-07-31T11:06:06;24.10;99.90
10530;DHT22;5313;48.834;9.228;2023-07-31T11:08:33;24.20;99.90
10530;DHT22;5313;48.834;9.228;2023-07-31T11:13:32;25.00;99.60
10530;DHT22;5313;48.834;9.228;2023-07-31T11:15:58;25.40;98.20
10530;DHT22;5313;48.834;9.228;2023-07-31T11:18:24;25.90;98.70
10530;DHT22;5313;48.834;9.228;2023-07-31T11:20:51;25.70;97.40
10530;DHT22;5313;48.834;9.228;2023-07-31T11:23:17;25.80;95.80
10530;DHT22;5313;48.834;9.228;2023-07-31T11:25:43;25.50;95.60
10530;DHT22;5313;48.834;9.228;2023-07-31T11:28:10;25.00;96.80
10530;DHT22;5313;48.834;9.228;2023-07-31T11:30:37;24.60;97.50
10530;DHT22;5313;48.834;9.228;2023-07-31T11:33:05;24.30;97.60
10530;DHT22;5313;48.834;9.228;2023-07-31T11:35:35;24.30;99.20
10530;DHT22;5313;48.834;9.228;2023-07-31T11:38:01;24.20;99.50
10530;DHT22;5313;48.834;9.228;2023-07-31T11:40:27;24.00;99.50
10530;DHT22;5313;48.834;9.228;2023-07-31T11:43:04;23.90;99.90
10530;DHT22;5313;48.834;9.228;2023-07-31T11:45:30;23.70;99.90
10530;DHT22;5313;48.834;9.228;2023-07-31T11:47:56;23.60;99.90
10530;DHT22;5313;48.834;9.228;2023-07-31T11:50:23;23.40;99.90
10530;DHT22;5313;48.834;9.228;2023-07-31T11:52:57;23.30;99.90
10530;DHT22;5313;48.834;9.228;2023-07-31T11:55:24;23.40;99.90
10530;DHT22;5313;48.834;9.228;2023-07-31T11:57:51;23.80;99.90
10530;DHT22;5313;48.834;9.228;2023-07-31T12:00:17;23.80;99.90
10530;DHT22;5313;48.834;9.228;2023-07-31T12:02:43;23.80;99.90
10530;DHT22;5313;48.834;9.228;2023-07-31T12:05:12;23.70;99.90
10530;DHT22;5313;48.834;9.228;2023-07-31T12:07:53;23.50;99.90
10530;DHT22;5313;48.834;9.228;2023-07-31T12:10:29;23.60;99.90
10530;DHT22;5313;48.834;9.228;2023-07-31T12:13:25;23.60;99.90
10530;DHT22;5313;48.834;9.228;2023-07-31T12:15:55;23.50;99.90
10530;DHT22;5313;48.834;9.228;2023-07-31T12:18:23;23.40;99.90
10530;DHT22;5313;48.834;9.228;2023-07-31T12:20:55;23.40;99.90
10530;DHT22;5313;48.834;9.228;2023-07-31T12:23:23;23.40;99.90
10530;DHT22;5313;48.834;9.228;2023-07-31T12:26:10;23.40;99.90
10530;DHT22;5313;48.834;9.228;2023-07-31T12:28:49;23.40;99.90
10530;DHT22;5313;48.834;9.228;2023-07-31T12:31:20;23.30;99.90
10530;DHT22;5313;48.834;9.228;2023-07-31T12:33:48;23.50;99.90
10530;DHT22;5313;48.834;9.228;2023-07-31T12:36:24;23.70;99.90
10530;DHT22;5313;48.834;9.228;2023-07-31T12:38:50;23.90;99.90
10530;DHT22;5313;48.834;9.228;2023-07-31T12:41:16;23.90;99.90
10530;DHT22;5313;48.834;9.228;2023-07-31T12:43:43;23.90;99.90
10530;DHT22;5313;48.834;9.228;2023-07-31T12:46:09;23.90;99.90
10530;DHT22;5313;48.834;9.228;2023-07-31T12:48:36;23.80;99.90
10530;DHT22;5313;48.834;9.228;2023-07-31T12:51:02;23.70;99.90
10530;DHT22;5313;48.834;9.228;2023-07-31T12:53:28;23.60;99.90
10530;DHT22;5313;48.834;9.228;2023-07-31T12:55:54;23.40;99.90
10530;DHT22;5313;48.834;9.228;2023-07-31T12:58:19;23.50;99.90
10530;DHT22;5313;48.834;9.228;2023-07-31T13:00:45;23.40;99.90
10530;DHT22;5313;48.834;9.228;2023-07-31T13:03:10;23.40;99.90
10530;DHT22;5313;48.834;9.228;2023-07-31T13:05:36;23.20;99.90
10530;DHT22;5313;48.834;9.228;2023-07-31T13:08:01;23.10;99.90
10530;DHT22;5313;48.834;9.228;2023-07-31T13:10:27;23.10;99.90
10530;DHT22;5313;48.834;9.228;2023-07-31T13:12:54;23.10;99.90
10530;DHT22;5313;48.834;9.228;2023-07-31T13:15:19;23.20;99.90
10530;DHT22;5313;48.834;9.228;2023-07-31T13:17:46;23.20;99.90
10530;DHT22;5313;48.834;9.228;2023-07-31T13:20:11;23.20;99.90
10530;DHT22;5313;48.834;9.228;2023-07-31T13:22:37;23.20;99.90
10530;DHT22;5313;48.834;9.228;2023-07-31T13:25:02;23.20;99.90
10530;DHT22;5313;48.834;9.228;2023-07-31T13:27:28;23.10;99.90
10530;DHT22;5313;48.834;9.228;2023-07-31T13:29:54;22.90;99.90
10530;DHT22;5313;48.834;9.228;2023-07-31T13:32:20;23.00;99.90
10530;DHT22;5313;48.834;9.228;2023-07-31T13:34:46;23.10;99.90
10530;DHT22;5313;48.834;9.228;2023-07-31T13:37:12;23.40;99.90
10530;DHT22;5313;48.834;9.228;2023-07-31T13:39:39;23.60;99.90
10530;DHT22;5313;48.834;9.228;2023-07-31T13:42:05;23.70;99.90
10530;DHT22;5313;48.834;9.228;2023-07-31T13:44:34;23.90;99.90
10530;DHT22;5313;48.834;9.228;2023-07-31T13:47:00;24.10;99.90
10530;DHT22;5313;48.834;9.228;2023-07-31T13:49:27;24.20;99.90
10530;DHT22;5313;48.834;9.228;2023-07-31T13:51:52;24.30;99.90
10530;DHT22;5313;48.834;9.228;2023-07-31T13:54:18;24.20;99.90
10530;DHT22;5313;48.834;9.228;2023-07-31T13:56:44;24.20;99.90
10530;DHT22;5313;48.834;9.228;2023-07-31T13:59:10;24.20;99.90
10530;DHT22;5313;48.834;9.228;2023-07-31T14:01:36;24.20;99.90
10530;DHT22;5313;48.834;9.228;2023-07-31T14:04:01;24.50;99.90
10530;DHT22;5313;48.834;9.228;2023-07-31T14:06:27;24.90;99.60
10530;DHT22;5313;48.834;9.228;2023-07-31T14:08:53;25.00;99.90
10530;DHT22;5313;48.834;9.228;2023-07-31T14:11:18;25.30;99.30
10530;DHT22;5313;48.834;9.228;2023-07-31T14:13:44;25.50;98.20
10530;DHT22;5313;48.834;9.228;2023-07-31T14:16:09;25.20;98.30
10530;DHT22;5313;48.834;9.228;2023-07-31T14:18:35;25.40;97.50
10530;DHT22;5313;48.834;9.228;2023-07-31T14:21:00;25.70;97.30
10530;DHT22;5313;48.834;9.228;2023-07-31T14:23:26;25.90;97.10
10530;DHT22;5313;48.834;9.228;2023-07-31T14:25:51;25.80;97.30
10530;DHT22;5313;48.834;9.228;2023-07-31T14:28:17;25.80;97.10
10530;DHT22;5313;48.834;9.228;2023-07-31T14:30:42;26.00;96.70
10530;DHT22;5313;48.834;9.228;2023-07-31T14:33:08;25.80;96.80
10530;DHT22;5313;48.834;9.228;2023-07-31T14:35:34;25.80;96.80
10530;DHT22;5313;48.834;9.228;2023-07-31T14:38:00;25.90;96.40
10530;DHT22;5313;48.834;9.228;2023-07-31T14:40:26;26.00;97.10
10530;DHT22;5313;48.834;9.228;2023-07-31T14:42:51;26.00;96.30
10530;DHT22;5313;48.834;9.228;2023-07-31T14:45:17;25.90;96.50
10530;DHT22;5313;48.834;9.228;2023-07-31T14:47:43;25.80;96.00
10530;DHT22;5313;48.834;9.228;2023-07-31T14:50:09;25.80;97.50
10530;DHT22;5313;48.834;9.228;2023-07-31T14:52:35;25.90;97.90
10530;DHT22;5313;48.834;9.228;2023-07-31T14:55:00;26.00;97.60
10530;DHT22;5313;48.834;9.228;2023-07-31T14:57:26;26.00;96.60
10530;DHT22;5313;48.834;9.228;2023-07-31T14:59:51;25.80;96.60
10530;DHT22;5313;48.834;9.228;2023-07-31T15:02:17;25.70;96.70
10530;DHT22;5313;48.834;9.228;2023-07-31T15:04:42;25.70;96.90
10530;DHT22;5313;48.834;9.228;2023-07-31T15:07:08;25.80;97.40
10530;DHT22;5313;48.834;9.228;2023-07-31T15:09:34;25.90;97.50
10530;DHT22;5313;48.834;9.228;2023-07-31T15:11:59;26.20;96.80
10530;DHT22;5313;48.834;9.228;2023-07-31T15:14:25;26.30;96.60
10530;DHT22;5313;48.834;9.228;2023-07-31T15:16:52;26.10;95.60
10530;DHT22;5313;48.834;9.228;2023-07-31T15:19:18;26.10;95.90
10530;DHT22;5313;48.834;9.228;2023-07-31T15:21:43;26.10;94.90
10530;DHT22;5313;48.834;9.228;2023-07-31T15:24:09;26.00;95.40
10530;DHT22;5313;48.834;9.228;2023-07-31T15:26:35;26.00;96.10
10530;DHT22;5313;48.834;9.228;2023-07-31T15:29:03;26.00;96.20
10530;DHT22;5313;48.834;9.228;2023-07-31T15:31:34;26.30;96.70
10530;DHT22;5313;48.834;9.228;2023-07-31T15:33:59;26.30;94.90
10530;DHT22;5313;48.834;9.228;2023-07-31T15:36:25;26.00;95.30
10530;DHT22;5313;48.834;9.228;2023-07-31T15:38:50;26.10;94.90
10530;DHT22;5313;48.834;9.228;2023-07-31T15:41:17;26.10;95.20
10530;DHT22;5313;48.834;9.228;2023-07-31T15:43:43;25.90;94.30
10530;DHT22;5313;48.834;9.228;2023-07-31T15:46:08;25.80;94.90
10530;DHT22;5313;48.834;9.228;2023-07-31T15:48:34;25.70;95.40
10530;DHT22;5313;48.834;9.228;2023-07-31T15:51:00;25.70;95.00